Time;durP1;ratioP1;P1;durP2;ratioP2;P2;SDS_P1;SDS_P2;PMS_P1;PMS_P2;Temp;Humidity;BMP_temperature;BMP_pressure;BME280_temperature;BME280_humidity;BME280_pressure;Samples;Min_cycle;Max_cycle;Signal;HPM_P1;HPM_P2
2022/01/14 00:01:30;;;;;;;30.13;12.43;;;7.00;99.90;;;;;;5008677;28;20080;-61
2022/01/14 00:03:56;;;;;;;23.20;12.48;;;7.10;99.90;;;;;;5013374;28;20103;-61
2022/01/14 00:06:21;;;;;;;33.78;12.30;;;7.10;99.90;;;;;;5012967;28;20486;-61
2022/01/14 00:08:47;;;;;;;35.72;12.95;;;7.10;99.90;;;;;;5013598;28;20050;-61
2022/01/14 00:11:17;;;;;;;36.90;11.77;;;7.10;99.90;;;;;;5028937;28;20033;-61
2022/01/14 00:16:12;;;;;;;40.08;12.82;;;7.10;99.90;;;;;;5008576;28;20049;-61
2022/01/14 00:18:38;;;;;;;28.55;13.02;;;7.10;99.90;;;;;;5024912;28;20063;-62
2022/01/14 00:21:03;;;;;;;27.40;12.25;;;7.10;99.90;;;;;;5016744;28;20038;-61
2022/01/14 00:23:34;;;;;;;27.67;12.45;;;7.10;99.90;;;;;;5008756;28;20037;-61
2022/01/14 00:34:16;;;;;;;44.83;15.02;;;7.10;99.90;;;;;;5021195;28;20111;-61
2022/01/14 00:36:41;;;;;;;35.83;13.13;;;7.00;99.90;;;;;;5016127;28;20060;-61
2022/01/14 00:39:09;;;;;;;35.10;13.85;;;7.00;99.90;;;;;;5022378;28;20025;-61
2022/01/14 00:41:36;;;;;;;29.23;14.02;;;7.00;99.90;;;;;;5024565;28;20057;-61
2022/01/14 00:44:07;;;;;;;27.63;12.57;;;7.00;99.90;;;;;;5013348;28;20048;-61
2022/01/14 00:46:33;;;;;;;35.80;14.05;;;7.00;99.90;;;;;;5009143;28;20046;-61
2022/01/14 00:48:58;;;;;;;38.63;13.55;;;7.00;99.90;;;;;;5022129;28;20043;-61
2022/01/14 00:51:24;;;;;;;33.25;13.07;;;7.00;99.90;;;;;;5009300;28;20041;-61
2022/01/14 00:53:50;;;;;;;30.08;15.30;;;7.10;99.90;;;;;;5021113;28;20054;-61
2022/01/14 00:56:30;;;;;;;29.90;13.82;;;7.10;99.90;;;;;;5026732;28;20049;-61
2022/01/14 00:59:15;;;;;;;28.08;13.30;;;7.10;99.90;;;;;;5027903;28;20057;-61
2022/01/14 01:01:51;;;;;;;29.27;15.13;;;7.10;99.90;;;;;;5028446;28;20052;-61
2022/01/14 01:04:18;;;;;;;34.00;15.07;;;7.10;99.90;;;;;;5018989;28;20037;-61
2022/01/14 01:06:44;;;;;;;30.55;14.35;;;7.10;99.90;;;;;;5009058;28;20061;-61
2022/01/14 01:09:12;;;;;;;27.80;14.60;;;7.20;99.90;;;;;;5015559;28;20045;-61
2022/01/14 01:11:44;;;;;;;28.90;14.43;;;7.20;99.90;;;;;;5012260;28;20515;-61
2022/01/14 01:14:14;;;;;;;34.13;14.13;;;7.20;99.90;;;;;;5015465;28;20045;-61
2022/01/14 01:16:40;;;;;;;46.72;16.52;;;7.20;99.90;;;;;;5028178;28;20485;-61
2022/01/14 01:19:06;;;;;;;33.25;15.95;;;7.20;99.90;;;;;;5024589;28;20038;-61
2022/01/14 01:21:32;;;;;;;37.40;16.45;;;7.20;99.90;;;;;;5010121;28;20050;-61
2022/01/14 01:23:58;;;;;;;36.33;15.40;;;7.20;99.90;;;;;;5017543;28;20033;-62
2022/01/14 01:26:30;;;;;;;38.33;15.57;;;7.20;99.90;;;;;;5016191;28;20118;-61
2022/01/14 01:29:03;;;;;;;29.17;13.75;;;7.20;99.90;;;;;;5007764;28;20054;-61
2022/01/14 01:31:35;;;;;;;28.27;14.88;;;7.20;99.90;;;;;;5008646;28;20123;-61
2022/01/14 01:34:07;;;;;;;36.58;15.40;;;7.30;99.90;;;;;;5011595;28;20397;-61
2022/01/14 01:36:33;;;;;;;31.55;14.20;;;7.30;99.90;;;;;;5012245;28;20049;-61
2022/01/14 01:38:58;;;;;;;27.80;13.77;;;7.30;99.90;;;;;;5010641;28;20081;-61
2022/01/14 01:41:25;;;;;;;28.25;12.25;;;7.30;99.90;;;;;;5011926;28;20108;-61
2022/01/14 01:43:53;;;;;;;29.23;14.32;;;7.30;99.90;;;;;;5016316;28;20041;-61
2022/01/14 01:46:23;;;;;;;36.20;15.02;;;7.30;99.90;;;;;;5010575;28;20733;-61
2022/01/14 01:48:50;;;;;;;29.15;14.30;;;7.30;99.90;;;;;;5013579;28;20635;-61
2022/01/14 01:51:16;;;;;;;39.10;12.80;;;7.30;99.90;;;;;;5015285;28;20532;-61
2022/01/14 01:53:42;;;;;;;38.42;13.95;;;7.30;99.90;;;;;;5014421;28;20052;-61
2022/01/14 01:56:08;;;;;;;32.17;14.40;;;7.30;99.90;;;;;;5028232;28;20120;-61
2022/01/14 01:58:34;;;;;;;32.58;14.60;;;7.30;99.90;;;;;;5021835;28;20144;-61
2022/01/14 02:01:04;;;;;;;34.05;13.27;;;7.30;99.90;;;;;;5011244;28;20033;-61
2022/01/14 02:03:29;;;;;;;32.22;12.27;;;7.30;99.90;;;;;;5011202;28;20498;-61
2022/01/14 02:05:55;;;;;;;31.23;13.02;;;7.30;99.90;;;;;;5013974;28;20049;-61
2022/01/14 02:08:21;;;;;;;36.13;14.07;;;7.30;99.90;;;;;;5011651;28;20042;-61
2022/01/14 02:10:46;;;;;;;35.10;13.70;;;7.30;99.90;;;;;;5013758;28;20502;-61
2022/01/14 02:13:12;;;;;;;30.80;13.10;;;7.30;99.90;;;;;;5014791;28;20088;-62
2022/01/14 02:15:50;;;;;;;31.73;12.60;;;7.30;99.90;;;;;;5012841;28;20077;-62
2022/01/14 02:18:33;;;;;;;39.17;13.63;;;7.30;99.90;;;;;;5014165;28;20084;-62
2022/01/14 02:23:52;;;;;;;39.88;14.50;;;7.30;99.90;;;;;;5013982;28;20153;-62
2022/01/14 02:26:20;;;;;;;41.72;15.10;;;7.30;99.90;;;;;;5010818;28;20132;-62
2022/01/14 02:28:47;;;;;;;31.20;13.23;;;7.30;99.90;;;;;;5026454;28;20099;-62
2022/01/14 02:31:13;;;;;;;30.55;12.75;;;7.30;99.90;;;;;;5030499;28;20060;-62
2022/01/14 02:33:38;;;;;;;41.10;13.90;;;7.30;99.90;;;;;;5022995;28;20037;-61
2022/01/14 02:36:05;;;;;;;36.53;13.43;;;7.30;99.90;;;;;;5025402;28;20037;-61
2022/01/14 02:38:30;;;;;;;32.25;15.20;;;7.30;99.90;;;;;;5030149;28;20060;-62
2022/01/14 02:40:57;;;;;;;31.10;11.73;;;7.30;99.90;;;;;;5026344;28;20051;-62
2022/01/14 02:43:23;;;;;;;34.95;13.35;;;7.30;99.90;;;;;;5018408;28;20052;-62
2022/01/14 02:45:52;;;;;;;32.47;13.00;;;7.30;99.90;;;;;;5028126;28;20049;-62
2022/01/14 02:48:23;;;;;;;30.13;14.52;;;7.30;99.90;;;;;;5022763;28;20478;-62
2022/01/14 02:51:01;;;;;;;32.13;14.20;;;7.30;99.90;;;;;;5027298;28;20132;-61
2022/01/14 02:53:43;;;;;;;26.05;13.75;;;7.30;99.90;;;;;;5006157;28;20429;-61
2022/01/14 02:56:19;;;;;;;29.08;13.77;;;7.30;99.90;;;;;;5017855;28;20818;-62
2022/01/14 02:58:46;;;;;;;28.58;13.75;;;7.30;99.90;;;;;;4992699;28;20053;-62
2022/01/14 03:01:16;;;;;;;30.20;15.32;;;7.30;99.90;;;;;;5020654;28;20045;-61
2022/01/14 03:03:45;;;;;;;33.28;14.38;;;7.30;99.90;;;;;;5009790;28;20046;-61
2022/01/14 03:06:12;;;;;;;31.65;14.05;;;7.30;99.90;;;;;;5024778;28;20045;-61
2022/01/14 03:08:38;;;;;;;30.80;13.38;;;7.40;99.90;;;;;;5025011;28;20069;-61
2022/01/14 03:11:14;;;;;;;24.75;12.07;;;7.30;99.90;;;;;;5008831;28;20127;-62
2022/01/14 03:13:40;;;;;;;30.95;14.13;;;7.30;99.90;;;;;;5017301;28;20048;-62
2022/01/14 03:16:07;;;;;;;39.45;14.82;;;7.30;99.90;;;;;;5013686;28;20410;-61
2022/01/14 03:18:47;;;;;;;26.58;14.88;;;7.30;99.90;;;;;;5016437;28;20041;-62
2022/01/14 03:21:15;;;;;;;21.23;11.55;;;7.40;99.90;;;;;;5027631;28;20046;-62
2022/01/14 03:23:50;;;;;;;41.85;15.70;;;7.40;99.90;;;;;;5020475;28;20050;-62
2022/01/14 03:26:20;;;;;;;42.15;14.80;;;7.30;99.90;;;;;;5010924;28;20050;-62
2022/01/14 03:28:47;;;;;;;27.33;15.23;;;7.30;99.90;;;;;;5009100;28;20464;-62
2022/01/14 03:31:13;;;;;;;30.80;15.35;;;7.30;99.90;;;;;;5008930;28;20076;-62
2022/01/14 03:33:39;;;;;;;31.88;12.88;;;7.30;99.90;;;;;;4992444;28;20576;-61
2022/01/14 03:36:06;;;;;;;27.75;14.48;;;7.30;99.90;;;;;;5010109;28;20093;-62
2022/01/14 03:38:32;;;;;;;33.28;14.98;;;7.30;99.90;;;;;;5011636;28;20054;-62
2022/01/14 03:40:58;;;;;;;37.95;14.32;;;7.30;99.90;;;;;;5017726;28;20137;-62
2022/01/14 03:43:24;;;;;;;30.35;14.45;;;7.30;99.90;;;;;;5010128;28;20161;-61
2022/01/14 03:45:50;;;;;;;30.48;14.35;;;7.30;99.90;;;;;;5008463;28;20547;-62
2022/01/14 03:48:17;;;;;;;37.42;14.35;;;7.30;99.90;;;;;;4994805;28;20494;-62
2022/01/14 03:50:44;;;;;;;41.70;14.70;;;7.30;99.90;;;;;;5009484;28;20117;-61
2022/01/14 03:53:11;;;;;;;30.08;14.20;;;7.30;99.90;;;;;;4990507;28;20462;-62
2022/01/14 03:55:42;;;;;;;31.15;14.07;;;7.30;99.90;;;;;;5014375;28;20065;-62
2022/01/14 03:58:08;;;;;;;25.38;13.27;;;7.30;99.90;;;;;;5008893;28;20097;-62
2022/01/14 04:00:34;;;;;;;26.77;14.27;;;7.30;99.90;;;;;;5008194;28;20641;-61
2022/01/14 04:02:59;;;;;;;32.17;14.63;;;7.30;99.90;;;;;;5010806;28;20045;-61
2022/01/14 04:05:25;;;;;;;33.22;13.85;;;7.30;99.90;;;;;;5019378;28;20065;-62
2022/01/14 04:07:51;;;;;;;28.60;14.00;;;7.30;99.90;;;;;;5008241;28;20046;-62
2022/01/14 04:10:18;;;;;;;26.30;13.07;;;7.20;99.90;;;;;;5012483;28;20058;-61
2022/01/14 04:12:48;;;;;;;30.13;14.60;;;7.20;99.90;;;;;;5015919;28;20522;-62
2022/01/14 04:18:00;;;;;;;28.13;13.55;;;7.20;99.90;;;;;;5024909;28;20461;-61
2022/01/14 04:20:28;;;;;;;33.50;13.20;;;7.20;99.90;;;;;;4996564;28;20050;-62
2022/01/14 04:22:54;;;;;;;41.33;15.30;;;7.20;99.90;;;;;;5023215;28;20049;-62
2022/01/14 04:25:20;;;;;;;25.13;15.00;;;7.30;99.90;;;;;;5022561;28;20075;-61
2022/01/14 04:27:46;;;;;;;30.60;13.55;;;7.30;99.90;;;;;;5027465;28;20504;-62
2022/01/14 04:30:12;;;;;;;35.67;16.27;;;7.30;99.90;;;;;;5016525;28;20064;-62
2022/01/14 04:32:38;;;;;;;23.73;14.77;;;7.20;99.90;;;;;;5016420;28;20054;-62
2022/01/14 04:35:04;;;;;;;34.55;14.45;;;7.20;99.90;;;;;;5017701;28;20059;-62
2022/01/14 04:37:29;;;;;;;31.88;16.75;;;7.20;99.90;;;;;;5028385;28;20049;-62
2022/01/14 04:39:55;;;;;;;28.95;13.95;;;7.20;99.90;;;;;;5009192;28;20045;-62
2022/01/14 04:42:21;;;;;;;37.63;15.18;;;7.20;99.90;;;;;;5007088;28;20041;-62
2022/01/14 04:44:46;;;;;;;33.67;13.48;;;7.20;99.90;;;;;;5008742;28;20666;-62
2022/01/14 04:47:18;;;;;;;36.03;14.63;;;7.10;99.90;;;;;;5008578;28;20057;-62
2022/01/14 04:49:43;;;;;;;31.27;15.38;;;7.10;99.90;;;;;;5013858;28;20128;-62
2022/01/14 04:52:09;;;;;;;28.42;13.00;;;7.10;99.90;;;;;;5014215;28;20429;-62
2022/01/14 04:54:35;;;;;;;31.55;13.60;;;7.10;99.90;;;;;;5021459;28;20149;-62
2022/01/14 04:57:01;;;;;;;33.22;15.07;;;7.10;99.90;;;;;;5027131;28;20041;-62
2022/01/14 04:59:27;;;;;;;24.60;13.50;;;7.10;99.90;;;;;;5003641;28;20088;-62
2022/01/14 05:01:56;;;;;;;33.50;13.82;;;7.10;99.90;;;;;;5015037;28;20420;-62
2022/01/14 05:04:21;;;;;;;22.05;13.88;;;7.10;99.90;;;;;;5014546;28;20650;-62
2022/01/14 05:06:54;;;;;;;30.60;14.23;;;7.10;99.90;;;;;;4992349;28;20053;-62
2022/01/14 05:09:31;;;;;;;37.10;13.30;;;7.20;99.90;;;;;;5018060;28;20053;-62
2022/01/14 05:12:05;;;;;;;25.10;13.50;;;7.10;99.90;;;;;;5012239;28;20049;-62
2022/01/14 05:14:30;;;;;;;;;;;7.20;99.90;;;;;;5022266;28;20120;-62
2022/01/14 05:16:56;;;;;;;35.25;14.13;;;7.10;99.90;;;;;;5014876;28;20441;-62
2022/01/14 05:19:21;;;;;;;27.60;14.65;;;7.20;99.90;;;;;;5011918;28;20042;-62
2022/01/14 05:21:47;;;;;;;30.75;13.32;;;7.10;99.90;;;;;;5010982;28;20052;-62
2022/01/14 05:24:12;;;;;;;34.38;12.95;;;7.20;99.90;;;;;;5018948;28;20049;-62
2022/01/14 05:26:38;;;;;;;33.35;12.90;;;7.20;99.90;;;;;;5029338;28;20073;-61
2022/01/14 05:29:03;;;;;;;33.70;13.77;;;7.20;99.90;;;;;;5011070;28;20053;-62
2022/01/14 05:31:50;;;;;;;30.35;13.80;;;7.20;99.90;;;;;;5014440;28;20049;-62
2022/01/14 05:34:16;;;;;;;26.20;13.65;;;7.20;99.90;;;;;;5002996;28;20038;-62
2022/01/14 05:36:43;;;;;;;31.40;13.68;;;7.10;99.90;;;;;;5015314;28;20081;-62
2022/01/14 05:39:10;;;;;;;27.08;13.80;;;7.10;99.90;;;;;;5010595;28;20084;-62
2022/01/14 05:41:36;;;;;;;22.48;13.15;;;7.10;99.90;;;;;;5011808;28;20060;-61
2022/01/14 05:44:03;;;;;;;27.75;13.48;;;7.10;99.90;;;;;;5011282;28;20041;-62
2022/01/14 05:46:29;;;;;;;22.73;12.90;;;7.10;99.90;;;;;;5028303;28;20511;-62
2022/01/14 05:48:54;;;;;;;22.15;13.73;;;7.10;99.90;;;;;;5026020;28;20121;-61
2022/01/14 05:51:20;;;;;;;35.63;13.70;;;7.10;99.90;;;;;;5031080;28;20048;-61
2022/01/14 05:53:45;;;;;;;24.88;12.80;;;7.10;99.90;;;;;;5023550;28;20042;-62
2022/01/14 05:56:11;;;;;;;31.70;13.55;;;7.10;99.90;;;;;;5014448;28;20137;-62
2022/01/14 05:58:37;;;;;;;33.03;14.10;;;7.10;99.90;;;;;;5022283;28;20111;-61
2022/01/14 06:01:02;;;;;;;26.30;13.15;;;7.10;99.90;;;;;;5028658;28;20099;-62
2022/01/14 06:03:28;;;;;;;28.27;12.82;;;7.10;99.90;;;;;;5025208;28;20536;-62
2022/01/14 06:05:54;;;;;;;21.98;11.73;;;7.10;99.90;;;;;;5010444;28;20096;-62
2022/01/14 06:08:19;;;;;;;29.55;12.05;;;7.10;99.90;;;;;;5024511;28;20047;-62
2022/01/14 06:10:45;;;;;;;33.72;13.25;;;7.10;99.90;;;;;;5011607;28;20132;-62
2022/01/14 06:13:10;;;;;;;25.70;11.30;;;7.20;99.90;;;;;;5010793;28;20048;-61
2022/01/14 06:15:36;;;;;;;29.77;10.93;;;7.10;99.90;;;;;;5012607;28;20053;-61
2022/01/14 06:18:01;;;;;;;30.25;11.50;;;7.10;99.90;;;;;;5025039;28;20049;-62
2022/01/14 06:20:27;;;;;;;22.02;10.32;;;7.20;99.90;;;;;;5029013;28;20095;-61
2022/01/14 06:22:53;;;;;;;31.02;11.98;;;7.20;99.90;;;;;;5030273;28;20045;-61
2022/01/14 06:25:19;;;;;;;29.23;9.85;;;7.20;99.90;;;;;;5016050;28;20100;-62
2022/01/14 06:27:45;;;;;;;26.50;10.38;;;7.20;99.90;;;;;;5029498;28;20038;-62
2022/01/14 06:30:11;;;;;;;26.08;10.23;;;7.20;99.90;;;;;;5028051;28;20501;-62
2022/01/14 06:32:42;;;;;;;20.83;9.00;;;7.20;99.90;;;;;;5010844;28;20042;-62
2022/01/14 06:35:13;;;;;;;29.23;10.52;;;7.20;99.90;;;;;;5016266;28;20054;-62
2022/01/14 06:37:40;;;;;;;24.15;9.50;;;7.20;99.90;;;;;;5010869;28;20101;-62
2022/01/14 06:40:07;;;;;;;34.05;10.00;;;7.20;99.90;;;;;;5018246;28;20132;-62
2022/01/14 06:42:33;;;;;;;25.75;8.50;;;7.20;99.90;;;;;;5014442;28;20404;-62
2022/01/14 06:44:58;;;;;;;24.70;9.48;;;7.20;99.90;;;;;;5017800;28;20041;-62
2022/01/14 06:47:25;;;;;;;25.92;8.68;;;7.30;99.90;;;;;;5011046;28;20046;-61
2022/01/14 06:49:50;;;;;;;22.15;8.70;;;7.20;99.90;;;;;;5020997;28;20448;-62
2022/01/14 06:52:16;;;;;;;22.63;7.43;;;7.30;99.90;;;;;;5026723;28;20049;-62
2022/01/14 06:54:41;;;;;;;28.95;7.57;;;7.30;99.90;;;;;;5020983;28;20553;-62
2022/01/14 06:57:07;;;;;;;20.30;8.55;;;7.30;99.90;;;;;;4991733;28;20053;-61
2022/01/14 06:59:33;;;;;;;26.63;7.95;;;7.30;99.90;;;;;;5011995;28;20045;-62
2022/01/14 07:02:00;;;;;;;25.70;8.07;;;7.30;99.90;;;;;;5029256;28;20045;-62
2022/01/14 07:04:25;;;;;;;16.13;5.88;;;7.30;99.90;;;;;;5021511;28;20560;-62
2022/01/14 07:06:51;;;;;;;20.00;6.60;;;7.30;99.90;;;;;;5029239;28;20153;-62
2022/01/14 07:09:16;;;;;;;29.77;6.28;;;7.30;99.90;;;;;;5025285;28;20228;-61
2022/01/14 07:11:46;;;;;;;25.83;6.43;;;7.30;99.90;;;;;;5024498;28;20042;-62
2022/01/14 07:14:12;;;;;;;27.95;7.18;;;7.30;99.90;;;;;;5015421;28;20513;-62
2022/01/14 07:16:38;;;;;;;14.82;5.82;;;7.40;99.90;;;;;;5013066;28;20042;-62
2022/01/14 07:19:04;;;;;;;15.27;6.15;;;7.30;99.90;;;;;;5017968;28;20543;-62
2022/01/14 07:21:33;;;;;;;21.45;6.65;;;7.30;99.90;;;;;;5027097;28;20049;-62
2022/01/14 07:23:58;;;;;;;18.38;5.80;;;7.30;99.90;;;;;;5016484;28;20060;-62
2022/01/14 07:26:24;;;;;;;14.98;5.50;;;7.30;99.90;;;;;;5023868;28;20041;-62
2022/01/14 07:28:49;;;;;;;20.60;5.55;;;7.30;99.90;;;;;;5024991;28;20045;-63
2022/01/14 07:31:15;;;;;;;14.60;5.03;;;7.30;99.90;;;;;;5012009;28;20064;-62
2022/01/14 07:33:41;;;;;;;13.68;5.15;;;7.30;99.90;;;;;;5013550;28;20439;-62
2022/01/14 07:36:06;;;;;;;17.63;6.35;;;7.40;99.90;;;;;;5021315;28;20407;-62
2022/01/14 07:38:32;;;;;;;25.02;6.68;;;7.30;99.90;;;;;;5016275;28;20108;-62
2022/01/14 07:40:57;;;;;;;29.02;8.15;;;7.40;99.90;;;;;;5012046;28;20041;-62
2022/01/14 07:43:23;;;;;;;16.80;6.15;;;7.40;99.90;;;;;;5003909;28;20148;-62
2022/01/14 07:45:49;;;;;;;15.88;5.82;;;7.40;99.90;;;;;;4997351;28;20077;-62
2022/01/14 07:48:14;;;;;;;17.35;6.20;;;7.40;99.90;;;;;;5020879;28;20048;-62
2022/01/14 07:50:40;;;;;;;15.52;5.90;;;7.40;99.90;;;;;;5017202;28;20033;-62
2022/01/14 07:53:06;;;;;;;24.17;6.35;;;7.40;99.90;;;;;;5020625;28;20095;-63
2022/01/14 07:55:31;;;;;;;15.23;6.97;;;7.40;99.90;;;;;;5011018;28;20049;-62
2022/01/14 07:57:57;;;;;;;17.75;5.68;;;7.40;99.90;;;;;;5016805;28;20049;-62
2022/01/14 08:00:23;;;;;;;17.90;6.60;;;7.50;99.90;;;;;;5017512;28;20046;-62
2022/01/14 08:02:48;;;;;;;12.90;5.38;;;7.40;99.90;;;;;;5014840;28;20052;-62
2022/01/14 08:05:15;;;;;;;14.73;5.03;;;7.50;99.90;;;;;;5015777;28;20100;-62
2022/01/14 08:07:46;;;;;;;19.42;5.10;;;7.50;99.90;;;;;;5007809;28;20092;-62
2022/01/14 08:10:15;;;;;;;14.85;4.85;;;7.50;99.90;;;;;;5015376;28;20111;-62
2022/01/14 08:12:43;;;;;;;18.35;4.93;;;7.50;99.90;;;;;;5028126;28;20801;-62
2022/01/14 08:15:10;;;;;;;16.48;5.32;;;7.50;99.90;;;;;;5019424;28;20076;-61
2022/01/14 08:17:37;;;;;;;20.38;6.00;;;7.50;99.90;;;;;;5017537;28;20042;-62
2022/01/14 08:20:04;;;;;;;15.02;4.40;;;7.50;99.90;;;;;;5019197;28;20469;-62
2022/01/14 08:22:31;;;;;;;19.45;4.97;;;7.50;99.90;;;;;;5018302;28;20045;-62
2022/01/14 08:24:57;;;;;;;13.50;4.18;;;7.50;99.90;;;;;;5016736;28;20034;-62
2022/01/14 08:27:22;;;;;;;14.68;4.78;;;7.40;99.90;;;;;;5018445;28;20135;-61
2022/01/14 08:29:50;;;;;;;30.75;5.38;;;7.50;99.90;;;;;;5018920;28;20056;-62
2022/01/14 08:32:15;;;;;;;18.02;4.22;;;7.50;99.90;;;;;;5020507;28;20078;-62
2022/01/14 08:34:41;;;;;;;27.17;4.05;;;7.50;99.90;;;;;;5015982;28;20080;-62
2022/01/14 08:37:06;;;;;;;15.57;4.05;;;7.50;99.90;;;;;;5027338;28;20085;-62
2022/01/14 08:39:33;;;;;;;10.23;3.30;;;7.60;99.90;;;;;;5019040;28;20476;-61
2022/01/14 08:41:59;;;;;;;10.65;3.38;;;7.60;99.90;;;;;;5002923;28;20060;-60
2022/01/14 08:44:25;;;;;;;7.55;3.70;;;7.60;99.90;;;;;;5025870;28;20053;-62
2022/01/14 08:46:55;;;;;;;11.23;3.65;;;7.60;99.90;;;;;;5030159;28;20057;-61
2022/01/14 08:49:21;;;;;;;19.08;4.60;;;7.60;99.90;;;;;;5020091;28;20095;-60
2022/01/14 08:51:49;;;;;;;16.27;3.67;;;7.60;99.90;;;;;;5030111;28;20049;-61
2022/01/14 08:54:14;;;;;;;14.65;4.60;;;7.60;99.90;;;;;;5030403;28;20049;-61
2022/01/14 08:56:40;;;;;;;18.13;3.95;;;7.60;99.90;;;;;;5017549;28;20049;-61
2022/01/14 08:59:06;;;;;;;12.38;3.28;;;7.60;99.90;;;;;;5023170;28;20053;-61
2022/01/14 09:01:32;;;;;;;8.18;2.95;;;7.60;99.90;;;;;;5013232;28;20092;-61
2022/01/14 09:03:57;;;;;;;15.02;3.47;;;7.70;99.90;;;;;;5025403;28;20092;-62
2022/01/14 09:06:23;;;;;;;15.13;3.60;;;7.70;99.90;;;;;;5025660;28;20084;-62
2022/01/14 09:08:49;;;;;;;16.80;4.32;;;7.70;99.90;;;;;;5027200;28;20504;-62
2022/01/14 09:11:14;;;;;;;15.15;3.65;;;7.70;99.90;;;;;;5023445;28;20057;-62
2022/01/14 09:13:40;;;;;;;10.68;2.88;;;7.80;99.90;;;;;;5029334;28;20741;-62
2022/01/14 09:16:06;;;;;;;22.17;3.95;;;7.80;99.90;;;;;;5025298;28;20500;-62
2022/01/14 09:18:31;;;;;;;14.82;3.45;;;7.80;99.90;;;;;;5021413;28;20088;-61
2022/01/14 09:20:58;;;;;;;13.55;3.38;;;7.80;99.90;;;;;;5023389;28;20420;-61
2022/01/14 09:23:25;;;;;;;19.85;3.30;;;7.80;99.90;;;;;;5020339;28;20121;-61
2022/01/14 09:25:55;;;;;;;14.02;3.47;;;7.80;99.90;;;;;;5014574;28;20045;-61
2022/01/14 09:28:20;;;;;;;14.38;3.10;;;7.90;99.90;;;;;;5011687;28;20053;-61
2022/01/14 09:30:46;;;;;;;10.98;3.03;;;7.90;99.90;;;;;;5011564;28;20038;-61
2022/01/14 09:33:12;;;;;;;15.73;4.30;;;7.90;99.90;;;;;;4994029;28;20046;-61
2022/01/14 09:35:40;;;;;;;19.48;3.92;;;8.00;99.90;;;;;;5014667;28;20064;-61
2022/01/14 09:38:06;;;;;;;14.88;4.25;;;8.00;99.90;;;;;;5010528;28;20057;-61
2022/01/14 09:40:32;;;;;;;19.85;3.83;;;8.00;99.90;;;;;;5028580;28;20115;-62
2022/01/14 09:43:01;;;;;;;21.55;4.57;;;8.00;99.90;;;;;;5031097;28;20489;-61
2022/01/14 09:45:28;;;;;;;20.90;4.60;;;8.10;99.90;;;;;;5012976;28;20564;-61
2022/01/14 09:47:55;;;;;;;20.08;3.92;;;8.10;99.90;;;;;;5009495;28;20409;-61
2022/01/14 09:50:21;;;;;;;20.30;4.65;;;8.10;99.90;;;;;;5010493;28;20042;-61
2022/01/14 09:52:49;;;;;;;14.63;3.67;;;8.10;99.90;;;;;;5010011;28;20054;-61
2022/01/14 09:55:16;;;;;;;15.15;3.50;;;8.10;99.90;;;;;;5022822;28;20049;-61
2022/01/14 09:57:42;;;;;;;25.63;3.78;;;8.10;99.90;;;;;;5031020;28;20489;-61
2022/01/14 10:00:08;;;;;;;23.65;4.63;;;8.10;99.90;;;;;;5026340;28;20057;-61
2022/01/14 10:02:40;;;;;;;21.42;5.38;;;8.20;99.90;;;;;;5018219;28;20050;-62
2022/01/14 10:05:08;;;;;;;21.10;3.80;;;8.20;99.90;;;;;;5022732;28;20507;-62
2022/01/14 10:07:33;;;;;;;23.42;4.40;;;8.20;99.90;;;;;;5030884;28;20444;-62
2022/01/14 10:10:01;;;;;;;21.10;4.22;;;8.10;99.90;;;;;;5013947;28;20049;-63
2022/01/14 10:12:33;;;;;;;20.02;4.05;;;8.20;99.90;;;;;;5020394;28;20050;-62
2022/01/14 10:15:03;;;;;;;24.90;4.50;;;8.20;99.90;;;;;;5019482;28;20045;-62
2022/01/14 10:17:41;;;;;;;16.75;4.10;;;8.20;99.90;;;;;;5017730;28;20057;-63
2022/01/14 10:20:09;;;;;;;21.40;4.30;;;8.20;99.90;;;;;;5019519;28;20749;-62
2022/01/14 10:22:39;;;;;;;13.57;3.08;;;8.20;99.90;;;;;;5025402;28;20052;-62
2022/01/14 10:25:11;;;;;;;19.35;4.88;;;8.20;99.90;;;;;;5005842;28;20076;-62
2022/01/14 10:27:48;;;;;;;11.40;3.10;;;8.20;99.90;;;;;;5029240;28;20133;-62
2022/01/14 10:30:27;;;;;;;16.25;4.15;;;8.30;99.90;;;;;;5025180;28;20648;-62
2022/01/14 10:33:05;;;;;;;16.45;3.75;;;8.30;99.90;;;;;;5010752;28;20054;-62
2022/01/14 10:35:36;;;;;;;26.80;4.93;;;8.30;99.90;;;;;;5010913;28;20484;-62
2022/01/14 10:38:05;;;;;;;26.55;5.50;;;8.20;99.90;;;;;;5010334;28;20121;-62
2022/01/14 10:40:35;;;;;;;13.20;3.90;;;8.30;99.90;;;;;;5023165;28;20037;-62
2022/01/14 10:43:03;;;;;;;20.52;4.47;;;8.30;99.90;;;;;;5026533;28;20049;-62
2022/01/14 10:45:29;;;;;;;14.45;3.65;;;8.30;99.90;;;;;;5010870;28;20124;-62
2022/01/14 10:48:03;;;;;;;28.00;6.30;;;8.30;99.90;;;;;;5011208;28;20204;-63
2022/01/14 10:50:35;;;;;;;17.52;3.53;;;8.30;99.90;;;;;;5021925;28;20519;-62
2022/01/14 10:53:13;;;;;;;20.75;4.55;;;8.30;99.90;;;;;;5009170;28;20041;-62
2022/01/14 10:56:01;;;;;;;15.10;4.20;;;8.30;99.90;;;;;;5018836;28;20072;-62
2022/01/14 10:58:28;;;;;;;22.05;5.10;;;8.30;99.90;;;;;;5024232;28;20049;-62
2022/01/14 11:01:11;;;;;;;19.25;4.68;;;8.30;99.90;;;;;;5021799;28;20072;-62
2022/01/14 11:03:43;;;;;;;15.15;3.70;;;8.30;99.90;;;;;;5021920;28;20064;-62
2022/01/14 11:06:23;;;;;;;16.30;5.05;;;8.30;99.90;;;;;;5013500;28;20497;-62
2022/01/14 11:09:01;;;;;;;23.65;3.90;;;8.30;99.90;;;;;;5005765;28;20053;-62
2022/01/14 11:11:32;;;;;;;21.27;4.60;;;8.30;99.90;;;;;;5019838;28;20112;-62
2022/01/14 11:13:57;;;;;;;21.45;4.63;;;8.30;99.90;;;;;;5029454;28;20053;-63
2022/01/14 11:16:24;;;;;;;21.70;5.10;;;8.30;99.90;;;;;;5016658;28;20037;-62
2022/01/14 11:18:50;;;;;;;17.25;4.43;;;8.30;99.90;;;;;;5013818;28;20166;-62
2022/01/14 11:24:03;;;;;;;24.77;4.68;;;8.30;99.90;;;;;;5023684;28;20095;-61
2022/01/14 11:26:33;;;;;;;13.77;4.30;;;8.40;99.90;;;;;;5019823;28;20050;-61
2022/01/14 11:29:09;;;;;;;19.15;4.05;;;8.40;99.90;;;;;;5009170;28;20060;-61
2022/01/14 11:31:37;;;;;;;15.38;4.45;;;8.40;99.90;;;;;;5008983;28;20768;-61
2022/01/14 11:34:30;;;;;;;13.68;4.00;;;8.40;99.90;;;;;;5008571;28;20046;-61
2022/01/14 11:36:59;;;;;;;17.05;5.10;;;8.40;99.90;;;;;;5001588;28;20056;-61
2022/01/14 11:39:34;;;;;;;18.38;5.10;;;8.40;99.90;;;;;;5018873;28;20084;-61
2022/01/14 11:42:05;;;;;;;21.50;4.63;;;8.30;99.90;;;;;;5022852;28;20073;-61
2022/01/14 11:44:52;;;;;;;20.55;5.97;;;8.40;99.90;;;;;;5028509;28;20052;-61
2022/01/14 11:47:45;;;;;;;14.07;3.25;;;8.40;99.90;;;;;;5010910;28;20058;-61
2022/01/14 11:50:31;;;;;;;25.52;4.70;;;8.40;99.90;;;;;;5008931;28;20171;-61
2022/01/14 11:52:58;;;;;;;21.23;5.25;;;8.40;99.90;;;;;;5004120;28;20046;-61
2022/01/14 11:55:34;;;;;;;25.63;5.30;;;8.40;99.90;;;;;;5009073;28;20042;-61
2022/01/14 11:58:02;;;;;;;20.23;4.55;;;8.40;99.90;;;;;;5011682;28;20477;-61
2022/01/14 12:00:30;;;;;;;28.65;5.38;;;8.40;99.90;;;;;;5010454;28;20058;-61
2022/01/14 12:03:07;;;;;;;20.77;4.03;;;8.40;99.90;;;;;;5024877;28;20060;-61
2022/01/14 12:05:37;;;;;;;28.35;4.80;;;8.40;99.90;;;;;;5028437;28;20049;-61
2022/01/14 12:08:11;;;;;;;23.40;5.78;;;8.40;99.90;;;;;;5028288;28;20092;-61
2022/01/14 12:10:43;;;;;;;16.70;4.65;;;8.50;99.90;;;;;;5003081;28;20049;-61
2022/01/14 12:13:36;;;;;;;27.30;5.47;;;8.50;99.90;;;;;;5009952;28;20046;-61
2022/01/14 12:18:58;;;;;;;14.18;4.65;;;8.50;99.90;;;;;;5007815;28;20088;-61
2022/01/14 12:21:44;;;;;;;20.65;4.32;;;8.50;99.90;;;;;;5022179;28;20041;-61
2022/01/14 12:24:15;;;;;;;20.48;5.63;;;8.50;99.90;;;;;;5021664;28;20112;-61
2022/01/14 12:27:01;;;;;;;27.23;4.28;;;8.60;99.90;;;;;;5014288;28;20042;-61
2022/01/14 12:29:59;;;;;;;25.63;5.00;;;8.60;99.90;;;;;;5012016;28;20053;-61
2022/01/14 12:32:34;;;;;;;22.13;4.65;;;8.60;99.90;;;;;;5022276;28;20493;-61
2022/01/14 12:35:03;;;;;;;28.35;5.75;;;8.60;99.90;;;;;;5013858;28;20046;-62
2022/01/14 12:37:33;;;;;;;20.35;4.15;;;8.60;99.90;;;;;;5015847;28;20495;-62
2022/01/14 12:40:11;;;;;;;22.77;4.95;;;8.60;99.90;;;;;;5007376;28;20054;-61
2022/01/14 12:42:38;;;;;;;43.50;6.18;;;8.60;99.90;;;;;;4995663;28;20053;-67
2022/01/14 12:45:07;;;;;;;25.70;5.70;;;8.60;99.90;;;;;;5013618;28;20046;-67
2022/01/14 12:47:39;;;;;;;25.77;5.32;;;8.70;99.90;;;;;;5017279;28;20103;-66
2022/01/14 12:50:11;;;;;;;25.98;6.07;;;8.70;99.90;;;;;;5014492;28;20058;-66
2022/01/14 12:52:48;;;;;;;21.20;4.95;;;8.60;99.90;;;;;;4995785;28;20121;-66
2022/01/14 12:55:15;;;;;;;22.45;5.00;;;8.60;99.90;;;;;;5011917;28;20577;-66
2022/01/14 12:57:40;;;;;;;25.10;5.32;;;8.60;99.90;;;;;;5003530;28;20681;-66
2022/01/14 13:00:08;;;;;;;27.33;5.63;;;8.60;99.90;;;;;;5008075;28;20062;-67
2022/01/14 13:02:34;;;;;;;29.67;6.95;;;8.60;99.90;;;;;;5014761;28;20137;-62
2022/01/14 13:05:06;;;;;;;21.77;4.82;;;8.60;99.90;;;;;;5027869;28;20595;-62
2022/01/14 13:07:32;;;;;;;38.95;7.47;;;8.70;99.90;;;;;;5026924;28;20700;-62
2022/01/14 13:09:58;;;;;;;27.58;6.22;;;8.70;99.90;;;;;;5012412;28;20124;-62
2022/01/14 13:12:30;;;;;;;23.95;6.05;;;8.70;99.90;;;;;;5008749;28;20472;-62